createdAt,value
2022-09-26T00:00:43.745Z,71.90
2022-09-26T00:03:12.214Z,72.36
2022-09-26T00:05:41.252Z,72.30
2022-09-26T00:08:08.769Z,72.17
2022-09-26T00:10:36.433Z,72.53
2022-09-26T00:13:04.015Z,72.65
2022-09-26T00:15:31.476Z,72.64
2022-09-26T00:17:58.931Z,72.33
2022-09-26T00:20:26.399Z,72.29
2022-09-26T00:22:55.200Z,72.27
2022-09-26T00:25:22.692Z,72.60
2022-09-26T00:27:50.169Z,72.11
2022-09-26T00:30:17.679Z,72.29
2022-09-26T00:32:45.191Z,72.08
2022-09-26T00:35:12.657Z,72.15
2022-09-26T00:37:40.107Z,72.31
2022-09-26T00:40:10.227Z,72.10
2022-09-26T00:42:37.817Z,72.54
2022-09-26T00:45:06.244Z,72.50
2022-09-26T00:47:40.711Z,72.55
2022-09-26T00:50:14.424Z,72.39
2022-09-26T00:52:45.707Z,72.33
2022-09-26T00:55:20.529Z,73.03
2022-09-26T00:57:53.302Z,72.49
2022-09-26T01:00:21.169Z,72.42
2022-09-26T01:02:49.514Z,72.75
2022-09-26T01:05:21.221Z,72.87
2022-09-26T01:07:50.372Z,72.66
2022-09-26T01:10:19.592Z,72.74
2022-09-26T01:12:48.028Z,72.70
2022-09-26T01:15:15.758Z,72.73
2022-09-26T01:17:45.733Z,73.15
2022-09-26T01:20:35.038Z,72.89
2022-09-26T01:23:35.949Z,72.92
2022-09-26T01:26:27.448Z,73.33
2022-09-26T01:29:13.312Z,72.56
2022-09-26T01:32:11.462Z,72.57
2022-09-26T01:34:47.202Z,72.34
2022-09-26T01:37:23.488Z,72.14
2022-09-26T01:40:02.553Z,72.28
2022-09-26T01:42:38.915Z,72.50
2022-09-26T01:45:14.772Z,72.44
2022-09-26T01:47:47.416Z,72.54
2022-09-26T01:50:18.290Z,72.37
2022-09-26T01:52:52.027Z,72.48
2022-09-26T01:55:25.472Z,72.50
2022-09-26T01:57:57.347Z,72.68
2022-09-26T02:00:25.152Z,72.67
2022-09-26T02:02:57.686Z,72.68
2022-09-26T02:05:32.830Z,72.82
2022-09-26T02:08:05.898Z,72.55
2022-09-26T02:10:37.284Z,72.43
2022-09-26T02:13:10.115Z,72.15
2022-09-26T02:15:40.373Z,72.15
2022-09-26T02:18:14.502Z,72.34
2022-09-26T02:20:47.415Z,71.98
2022-09-26T02:23:15.459Z,71.44
2022-09-26T02:25:42.918Z,71.82
2022-09-26T02:28:10.390Z,71.55
2022-09-26T02:30:39.249Z,71.48
2022-09-26T02:33:06.748Z,71.27
2022-09-26T02:35:53.208Z,70.87
2022-09-26T02:38:21.187Z,70.75
2022-09-26T02:40:52.365Z,70.81
2022-09-26T02:43:42.065Z,70.83
2022-09-26T02:46:28.479Z,70.61
2022-09-26T02:49:15.247Z,70.34
2022-09-26T02:52:01.027Z,70.23
2022-09-26T02:54:35.892Z,70.45
2022-09-26T02:57:22.888Z,70.75
2022-09-26T02:59:59.704Z,70.52
2022-09-26T03:02:35.377Z,71.39
2022-09-26T03:05:07.219Z,71.56
2022-09-26T03:07:42.519Z,71.20
2022-09-26T03:10:12.758Z,70.72
2022-09-26T03:12:42.192Z,70.69
2022-09-26T03:15:11.376Z,70.66
2022-09-26T03:17:42.667Z,70.35
2022-09-26T03:20:14.714Z,70.51
2022-09-26T03:22:45.718Z,70.49
2022-09-26T03:25:18.542Z,71.08
2022-09-26T03:27:47.820Z,70.94
2022-09-26T03:30:16.971Z,70.96
2022-09-26T03:32:44.418Z,70.19
2022-09-26T03:35:11.939Z,70.04
2022-09-26T03:37:39.654Z,70.28
2022-09-26T03:40:11.451Z,70.12
2022-09-26T03:42:39.505Z,70.10
2022-09-26T03:45:10.389Z,70.32
2022-09-26T03:47:38.836Z,70.80
2022-09-26T03:50:07.278Z,70.06
2022-09-26T03:52:36.392Z,69.90
2022-09-26T03:55:04.200Z,70.58
2022-09-26T03:57:32.975Z,71.00
2022-09-26T04:00:00.841Z,70.74
2022-09-26T04:02:28.358Z,70.86
2022-09-26T04:04:55.872Z,70.54
2022-09-26T04:07:23.654Z,70.41
2022-09-26T04:09:51.253Z,70.14
2022-09-26T04:12:18.793Z,70.08
2022-09-26T04:14:47.679Z,70.46
2022-09-26T04:17:15.188Z,70.07
2022-09-26T04:19:42.656Z,69.75
2022-09-26T04:22:10.130Z,70.00
2022-09-26T04:24:37.710Z,70.24
2022-09-26T04:27:08.491Z,70.51
2022-09-26T04:29:35.990Z,70.49
2022-09-26T04:32:04.897Z,70.04
2022-09-26T04:34:32.438Z,71.06
2022-09-26T04:37:00.563Z,70.93
2022-09-26T04:39:28.080Z,70.50
2022-09-26T04:41:55.552Z,70.66
2022-09-26T04:44:23.014Z,71.13
2022-09-26T04:46:50.505Z,71.33
2022-09-26T04:49:19.303Z,71.09
2022-09-26T04:51:47.763Z,70.87
2022-09-26T04:54:16.518Z,70.79
2022-09-26T04:56:44.353Z,70.53
2022-09-26T04:59:11.937Z,71.01
2022-09-26T05:01:39.563Z,71.35
2022-09-26T05:04:08.166Z,71.01
2022-09-26T05:06:37.034Z,71.33
2022-09-26T05:09:05.936Z,71.01
2022-09-26T05:11:33.523Z,71.22
2022-09-26T05:14:02.443Z,71.42
2022-09-26T05:16:30.011Z,71.52
2022-09-26T05:18:57.529Z,71.34
2022-09-26T05:21:25.062Z,71.41
2022-09-26T05:24:11.283Z,71.36
2022-09-26T05:26:42.729Z,71.60
2022-09-26T05:29:11.973Z,71.36
2022-09-26T05:31:40.230Z,71.38
2022-09-26T05:34:12.198Z,71.91
2022-09-26T05:36:43.240Z,71.54
2022-09-26T05:39:26.187Z,71.52
2022-09-26T05:41:53.991Z,71.61
2022-09-26T05:44:21.493Z,71.13
2022-09-26T05:46:50.285Z,71.25
2022-09-26T05:49:18.282Z,71.66
2022-09-26T05:51:46.492Z,71.47
2022-09-26T05:54:15.702Z,71.91
2022-09-26T05:56:43.320Z,71.51
2022-09-26T05:59:10.951Z,71.79
2022-09-26T06:01:38.584Z,71.16
2022-09-26T06:04:06.506Z,71.70
2022-09-26T06:06:34.335Z,71.13
2022-09-26T06:09:03.307Z,71.35
2022-09-26T06:11:32.119Z,71.43
2022-09-26T06:14:01.005Z,71.52
2022-09-26T06:16:29.749Z,70.91
2022-09-26T06:18:57.479Z,71.00
2022-09-26T06:21:25.583Z,70.84
2022-09-26T06:23:53.082Z,70.87
2022-09-26T06:26:22.739Z,70.83
2022-09-26T06:28:55.431Z,71.34
2022-09-26T06:31:23.482Z,71.68
2022-09-26T06:33:53.255Z,70.91
2022-09-26T06:36:21.791Z,71.53
2022-09-26T06:38:49.889Z,71.59
2022-09-26T06:41:17.728Z,71.27
2022-09-26T06:43:45.944Z,71.40
2022-09-26T06:46:15.972Z,70.81
2022-09-26T06:48:43.858Z,70.89
2022-09-26T06:51:13.783Z,70.30
2022-09-26T06:53:42.567Z,69.87
2022-09-26T06:56:10.051Z,69.57
2022-09-26T06:58:37.556Z,69.73
2022-09-26T07:01:06.471Z,68.92
2022-09-26T07:03:36.011Z,68.36
2022-09-26T07:06:04.309Z,69.22
2022-09-26T07:08:57.830Z,69.03
2022-09-26T07:11:56.205Z,68.09
2022-09-26T07:14:07.698Z,68.21
2022-09-26T07:16:35.286Z,68.53
2022-09-26T07:19:04.766Z,67.51
2022-09-26T07:21:32.249Z,67.74
2022-09-26T07:23:59.732Z,67.00
2022-09-26T07:26:27.228Z,66.50
2022-09-26T07:28:55.171Z,67.23
2022-09-26T07:31:23.555Z,67.53
2022-09-26T07:33:51.136Z,67.56
2022-09-26T07:36:21.129Z,66.73
2022-09-26T07:38:49.267Z,65.84
2022-09-26T07:41:17.375Z,66.38
2022-09-26T07:46:58.236Z,65.54
2022-09-26T07:49:43.142Z,64.99
2022-09-26T07:52:12.221Z,65.73
2022-09-26T07:54:40.083Z,65.14
2022-09-26T07:57:07.607Z,66.05
2022-09-26T07:59:35.734Z,65.46
2022-09-26T08:02:03.628Z,65.74
2022-09-26T08:04:31.495Z,65.08
2022-09-26T08:06:59.525Z,65.37
2022-09-26T08:09:28.533Z,64.07
2022-09-26T08:11:56.248Z,65.40
2022-09-26T08:14:23.951Z,64.81
2022-09-26T08:16:56.241Z,65.52
2022-09-26T08:19:24.452Z,63.94
2022-09-26T08:21:52.056Z,63.02
2022-09-26T08:24:19.666Z,62.57
2022-09-26T08:26:48.880Z,62.54
2022-09-26T08:29:16.700Z,62.42
2022-09-26T08:31:45.955Z,63.11
2022-09-26T08:34:13.855Z,63.10
2022-09-26T08:36:41.624Z,62.92
2022-09-26T08:39:11.043Z,62.48
2022-09-26T08:42:12.468Z,62.09
2022-09-26T08:44:57.276Z,62.50
2022-09-26T08:47:36.786Z,60.21
2022-09-26T08:50:16.341Z,60.15
2022-09-26T08:52:52.666Z,58.97
2022-09-26T08:55:37.581Z,59.03
2022-09-26T08:58:15.516Z,58.27
2022-09-26T09:00:48.144Z,58.15
2022-09-26T09:03:26.005Z,58.02
2022-09-26T09:06:01.301Z,57.79
2022-09-26T09:08:37.325Z,57.15
2022-09-26T09:11:16.431Z,56.97
2022-09-26T09:14:11.481Z,57.29
2022-09-26T09:17:00.507Z,56.99
2022-09-26T09:19:44.568Z,56.78
2022-09-26T09:22:34.749Z,57.97
2022-09-26T09:25:27.744Z,56.66
2022-09-26T09:28:08.699Z,57.73
2022-09-26T09:30:44.227Z,58.39
2022-09-26T09:33:20.958Z,57.53
2022-09-26T09:36:00.395Z,55.67
2022-09-26T09:38:31.788Z,56.24
2022-09-26T09:41:28.586Z,55.82
2022-09-26T09:44:00.371Z,56.89
2022-09-26T09:46:47.768Z,55.27
2022-09-26T09:49:30.730Z,56.86
2022-09-26T09:52:15.020Z,55.77
2022-09-26T09:55:06.499Z,54.70
2022-09-26T09:58:14.010Z,54.56
2022-09-26T10:00:51.645Z,55.33
2022-09-26T10:03:27.757Z,53.67
2022-09-26T10:05:59.777Z,53.75
2022-09-26T10:08:32.339Z,52.24
2022-09-26T10:11:08.850Z,52.80
2022-09-26T10:13:41.081Z,52.67
2022-09-26T10:16:16.578Z,49.53
2022-09-26T10:19:10.064Z,49.48
2022-09-26T10:21:48.000Z,50.10
2022-09-26T10:24:24.982Z,49.59
2022-09-26T10:26:52.592Z,48.75
2022-09-26T10:29:24.996Z,47.33
2022-09-26T10:31:56.619Z,48.49
2022-09-26T10:34:28.301Z,47.83
2022-09-26T10:36:57.165Z,48.39
2022-09-26T10:39:47.952Z,48.20
2022-09-26T10:42:21.756Z,48.49
2022-09-26T10:44:50.815Z,48.25
2022-09-26T10:47:24.969Z,48.56
2022-09-26T10:49:59.542Z,47.56
2022-09-26T10:52:31.308Z,48.53
2022-09-26T10:55:04.803Z,48.47
2022-09-26T10:57:39.940Z,46.68
2022-09-26T11:00:09.051Z,47.09
2022-09-26T11:02:37.724Z,46.98
2022-09-26T11:05:27.434Z,46.11
2022-09-26T11:07:57.820Z,44.88
2022-09-26T11:10:32.492Z,45.40
2022-09-26T11:13:03.532Z,45.34
2022-09-26T11:15:32.331Z,45.25
2022-09-26T11:18:00.252Z,44.95
2022-09-26T11:20:40.680Z,44.17
2022-09-26T11:23:18.000Z,44.66
2022-09-26T11:25:58.088Z,41.64
2022-09-26T11:28:31.540Z,41.99
2022-09-26T11:31:05.070Z,40.26
2022-09-26T11:33:33.196Z,39.91
2022-09-26T11:36:25.071Z,38.53
2022-09-26T11:39:02.445Z,37.77
2022-09-26T11:42:01.693Z,36.65
2022-09-26T11:45:09.023Z,34.36
2022-09-26T11:48:17.029Z,33.61
2022-09-26T11:50:56.675Z,32.86
2022-09-26T11:53:50.944Z,32.34
2022-09-26T11:56:47.442Z,31.47
2022-09-26T11:59:32.486Z,31.27
2022-09-26T12:02:23.872Z,31.33
2022-09-26T12:05:04.293Z,30.18
2022-09-26T12:07:43.747Z,30.74
2022-09-26T12:10:26.388Z,31.56
2022-09-26T12:13:13.116Z,30.24
2022-09-26T12:15:48.591Z,30.87
2022-09-26T12:18:26.656Z,31.81
2022-09-26T12:21:05.911Z,32.17
2022-09-26T12:23:38.641Z,32.74
2022-09-26T12:26:17.222Z,33.00
2022-09-26T12:29:00.336Z,33.19
2022-09-26T12:31:48.236Z,33.43
2022-09-26T12:34:37.617Z,33.76
2022-09-26T12:37:14.275Z,33.83
2022-09-26T12:39:57.417Z,34.11
2022-09-26T12:42:49.650Z,33.43
2022-09-26T12:45:43.688Z,33.63
2022-09-26T12:48:22.183Z,33.11
2022-09-26T12:51:07.255Z,33.48
2022-09-26T12:53:49.648Z,34.49
2022-09-26T12:56:38.015Z,32.92
2022-09-26T12:59:25.036Z,32.56
2022-09-26T13:02:28.767Z,33.48
2022-09-26T13:05:18.895Z,34.75
2022-09-26T13:08:02.251Z,35.53
2022-09-26T13:10:39.115Z,36.44
2022-09-26T13:13:26.521Z,36.19
2022-09-26T13:16:13.630Z,36.30
2022-09-26T13:18:45.564Z,36.44
2022-09-26T13:21:16.669Z,36.91
2022-09-26T13:23:54.112Z,36.21
2022-09-26T13:26:28.981Z,35.67
2022-09-26T13:29:17.290Z,36.06
2022-09-26T13:31:55.393Z,35.75
2022-09-26T13:34:32.472Z,37.03
2022-09-26T13:37:01.032Z,37.43
2022-09-26T13:39:35.760Z,36.95
2022-09-26T13:42:12.809Z,36.88
2022-09-26T13:44:56.521Z,37.28
2022-09-26T13:47:38.551Z,37.10
2022-09-26T13:50:23.575Z,37.37
2022-09-26T13:53:04.440Z,37.70
2022-09-26T13:55:32.305Z,38.06
2022-09-26T13:58:07.104Z,37.91
2022-09-26T14:00:53.407Z,38.03
2022-09-26T14:03:43.139Z,38.11
2022-09-26T14:06:35.142Z,38.01
2022-09-26T14:09:27.149Z,38.28
2022-09-26T14:12:33.099Z,38.47
2022-09-26T14:15:20.795Z,38.99
2022-09-26T14:18:09.160Z,38.64
2022-09-26T14:20:53.951Z,37.84
2022-09-26T14:23:36.920Z,38.18
2022-09-26T14:26:11.785Z,37.69
2022-09-26T14:28:40.852Z,37.55
2022-09-26T14:31:23.123Z,38.00
2022-09-26T14:34:05.465Z,38.20
2022-09-26T14:36:36.404Z,38.31
2022-09-26T14:39:06.062Z,38.89
2022-09-26T14:41:35.832Z,39.43
2022-09-26T14:44:05.634Z,40.29
2022-09-26T14:46:35.581Z,40.51
2022-09-26T14:49:05.887Z,40.89
2022-09-26T14:51:38.245Z,41.10
2022-09-26T14:54:07.133Z,41.51
2022-09-26T14:56:41.732Z,41.99
2022-09-26T14:59:27.863Z,41.80
2022-09-26T15:02:18.801Z,42.07
2022-09-26T15:04:49.708Z,42.05
2022-09-26T15:07:23.482Z,41.91
2022-09-26T15:09:57.851Z,42.30
2022-09-26T15:12:39.573Z,41.43
2022-09-26T15:15:31.705Z,41.80
2022-09-26T15:21:32.855Z,42.32
2022-09-26T15:24:05.137Z,42.27
2022-09-26T15:26:36.178Z,42.04
2022-09-26T15:29:06.318Z,41.82
2022-09-26T15:31:40.442Z,42.01
2022-09-26T15:34:13.234Z,41.89
2022-09-26T15:36:43.062Z,42.10
2022-09-26T15:39:38.050Z,42.50
2022-09-26T15:42:41.669Z,42.60
2022-09-26T15:45:27.102Z,42.85
2022-09-26T15:47:56.353Z,43.19
2022-09-26T15:50:28.342Z,43.18
2022-09-26T15:53:02.062Z,43.55
2022-09-26T15:55:35.090Z,43.94
2022-09-26T15:58:06.150Z,43.82
2022-09-26T16:00:37.192Z,43.85
2022-09-26T16:03:36.252Z,43.99
2022-09-26T16:06:08.523Z,44.08
2022-09-26T16:08:42.421Z,44.62
2022-09-26T16:11:11.273Z,44.68
2022-09-26T16:13:46.249Z,45.20
2022-09-26T16:16:18.739Z,45.15
2022-09-26T16:18:53.021Z,45.14
2022-09-26T16:21:22.161Z,45.18
2022-09-26T16:23:51.760Z,45.65
2022-09-26T16:26:28.734Z,46.40
2022-09-26T16:28:57.820Z,47.23
2022-09-26T16:31:29.405Z,46.70
2022-09-26T16:33:59.029Z,46.93
2022-09-26T16:36:29.105Z,46.78
2022-09-26T16:38:59.422Z,46.78
2022-09-26T16:42:00.469Z,47.51
2022-09-26T16:44:35.305Z,46.68
2022-09-26T16:47:05.969Z,46.61
2022-09-26T16:49:45.626Z,46.78
2022-09-26T16:52:31.035Z,46.93
2022-09-26T16:55:01.468Z,46.74
2022-09-26T16:57:33.205Z,47.33
2022-09-26T17:00:20.474Z,46.90
2022-09-26T17:02:48.838Z,46.89
2022-09-26T17:05:19.329Z,46.71
2022-09-26T17:07:49.265Z,46.39
2022-09-26T17:10:18.401Z,46.62
2022-09-26T17:12:50.401Z,46.77
2022-09-26T17:15:20.638Z,46.64
2022-09-26T17:17:54.036Z,46.77
2022-09-26T17:20:22.367Z,47.02
2022-09-26T17:22:49.990Z,47.34
2022-09-26T17:25:19.989Z,47.63
2022-09-26T17:27:54.520Z,47.61
2022-09-26T17:30:22.063Z,47.43
2022-09-26T17:32:54.260Z,47.02
2022-09-26T17:35:25.730Z,47.44
2022-09-26T17:37:53.841Z,47.27
2022-09-26T17:40:24.973Z,47.41
2022-09-26T17:42:56.506Z,47.72
2022-09-26T17:45:29.973Z,47.75
2022-09-26T17:48:00.179Z,48.05
2022-09-26T17:50:31.221Z,48.42
2022-09-26T17:53:00.782Z,48.75
2022-09-26T17:55:29.232Z,48.23
2022-09-26T17:57:59.644Z,48.37
2022-09-26T18:00:31.793Z,48.16
2022-09-26T18:03:03.829Z,48.10
2022-09-26T18:05:34.886Z,47.82
2022-09-26T18:08:10.129Z,48.15
2022-09-26T18:10:43.111Z,47.88
2022-09-26T18:13:15.866Z,48.32
2022-09-26T18:15:43.353Z,48.32
2022-09-26T18:18:14.253Z,48.29
2022-09-26T18:20:42.113Z,48.64
2022-09-26T18:23:16.023Z,48.90
2022-09-26T18:25:45.393Z,48.81
2022-09-26T18:28:16.912Z,49.42
2022-09-26T18:30:48.640Z,49.65
2022-09-26T18:33:19.220Z,49.93
2022-09-26T18:35:49.686Z,50.13
2022-09-26T18:38:18.843Z,50.20
2022-09-26T18:40:52.021Z,51.04
2022-09-26T18:43:23.833Z,50.77
2022-09-26T18:45:51.887Z,51.18
2022-09-26T18:48:24.558Z,51.33
2022-09-26T18:50:58.206Z,51.19
2022-09-26T18:53:42.199Z,51.32
2022-09-26T18:56:28.280Z,51.13
2022-09-26T18:58:58.246Z,51.15
2022-09-26T19:01:31.074Z,51.16
2022-09-26T19:04:01.335Z,51.65
2022-09-26T19:06:32.865Z,51.36
2022-09-26T19:09:02.700Z,51.57
2022-09-26T19:11:32.520Z,51.82
2022-09-26T19:14:11.759Z,52.30
2022-09-26T19:16:39.294Z,52.33
2022-09-26T19:19:06.789Z,52.46
2022-09-26T19:21:37.394Z,52.83
2022-09-26T19:24:09.624Z,53.03
2022-09-26T19:26:39.851Z,52.87
2022-09-26T19:29:13.664Z,53.31
2022-09-26T19:31:41.894Z,53.40
2022-09-26T19:34:13.817Z,53.65
2022-09-26T19:36:41.357Z,53.74
2022-09-26T19:39:13.291Z,54.22
2022-09-26T19:41:40.776Z,53.83
2022-09-26T19:44:09.704Z,53.92
2022-09-26T19:46:38.479Z,54.20
2022-09-26T19:49:06.697Z,54.25
2022-09-26T19:51:39.651Z,54.79
2022-09-26T19:54:07.979Z,54.86
2022-09-26T19:56:35.596Z,54.99
2022-09-26T19:59:03.216Z,55.11
2022-09-26T20:01:32.211Z,55.33
2022-09-26T20:03:59.816Z,55.32
2022-09-26T20:06:27.383Z,55.63
2022-09-26T20:09:01.238Z,55.69
2022-09-26T20:11:29.496Z,55.98
2022-09-26T20:14:15.081Z,56.13
2022-09-26T20:16:44.139Z,56.39
2022-09-26T20:19:17.256Z,56.90
2022-09-26T20:21:44.933Z,56.76
2022-09-26T20:24:16.456Z,56.89
2022-09-26T20:26:44.308Z,56.88
2022-09-26T20:29:14.126Z,57.13
2022-09-26T20:31:43.664Z,57.10
2022-09-26T20:34:12.665Z,57.21
2022-09-26T20:36:43.325Z,57.30
2022-09-26T20:39:15.324Z,57.37
2022-09-26T20:41:43.839Z,57.26
2022-09-26T20:44:14.917Z,57.50
2022-09-26T20:46:48.467Z,57.69
2022-09-26T20:49:22.530Z,57.81
2022-09-26T20:51:51.057Z,57.49
2022-09-26T20:54:26.307Z,58.06
2022-09-26T20:56:54.564Z,57.79
2022-09-26T20:59:22.443Z,57.63
2022-09-26T21:01:50.433Z,57.80
2022-09-26T21:04:23.541Z,58.40
2022-09-26T21:06:51.174Z,58.51
2022-09-26T21:09:20.784Z,58.74
2022-09-26T21:11:48.873Z,59.24
2022-09-26T21:14:16.539Z,59.38
2022-09-26T21:16:46.665Z,59.75
2022-09-26T21:19:23.535Z,60.33
2022-09-26T21:21:51.947Z,59.95
2022-09-26T21:24:25.424Z,60.37
2022-09-26T21:26:53.188Z,60.17
2022-09-26T21:29:20.785Z,60.41
2022-09-26T21:31:51.295Z,60.88
2022-09-26T21:34:21.433Z,60.93
2022-09-26T21:36:52.019Z,60.96
2022-09-26T21:39:20.422Z,60.91
2022-09-26T21:41:50.595Z,61.60
2022-09-26T21:44:24.623Z,61.49
2022-09-26T21:46:52.267Z,61.25
2022-09-26T21:49:19.836Z,61.32
2022-09-26T21:51:53.224Z,61.85
2022-09-26T21:54:24.981Z,62.10
2022-09-26T21:56:58.188Z,61.92
2022-09-26T21:59:25.963Z,62.05
2022-09-26T22:01:53.604Z,62.22
2022-09-26T22:04:22.420Z,62.29
2022-09-26T22:06:51.322Z,63.20
2022-09-26T22:09:18.861Z,62.72
2022-09-26T22:11:46.487Z,63.07
2022-09-26T22:14:14.176Z,63.23
2022-09-26T22:16:41.831Z,63.48
2022-09-26T22:19:09.836Z,63.48
2022-09-26T22:21:37.473Z,63.63
2022-09-26T22:24:06.628Z,63.91
2022-09-26T22:26:34.183Z,63.88
2022-09-26T22:29:01.799Z,63.93
2022-09-26T22:31:29.479Z,63.83
2022-09-26T22:33:57.532Z,64.09
2022-09-26T22:36:25.205Z,64.53
2022-09-26T22:38:54.718Z,64.42
2022-09-26T22:41:23.725Z,64.91
2022-09-26T22:43:53.419Z,65.11
2022-09-26T22:46:21.258Z,64.57
2022-09-26T22:48:49.082Z,64.89
2022-09-26T22:51:18.153Z,65.05
2022-09-26T22:53:45.824Z,64.85
2022-09-26T22:56:16.534Z,64.94
2022-09-26T22:58:47.795Z,65.13
2022-09-26T23:01:18.562Z,64.71
2022-09-26T23:03:46.435Z,64.53
2022-09-26T23:06:14.033Z,64.61
2022-09-26T23:08:41.608Z,64.30
2022-09-26T23:11:11.605Z,64.33
2022-09-26T23:13:40.039Z,64.12
2022-09-26T23:16:11.288Z,64.37
2022-09-26T23:18:40.072Z,63.97
2022-09-26T23:21:09.172Z,64.15
2022-09-26T23:23:37.322Z,64.02
2022-09-26T23:26:07.108Z,64.27
2022-09-26T23:28:35.015Z,63.85
2022-09-26T23:31:07.253Z,63.38
2022-09-26T23:33:36.603Z,63.36
2022-09-26T23:36:04.932Z,63.77
2022-09-26T23:38:32.824Z,64.09
2022-09-26T23:41:00.774Z,63.47
2022-09-26T23:43:28.374Z,63.22
2022-09-26T23:45:56.057Z,63.45
2022-09-26T23:48:24.014Z,62.96
2022-09-26T23:50:53.232Z,62.96
2022-09-26T23:53:21.186Z,63.04
2022-09-26T23:55:48.806Z,63.20
2022-09-26T23:58:16.777Z,62.86
